الصفحة الرئيسية
METAR-TAF:

METAR-TAF

مطار :

مطار جيبوتي الدولي

جيبوتي, جيبوتي

دائرة عرض: 11-33N, خط طول: 043-10E, ارتفاع: 49 متر

مراقبة الطقس الحالي

تاريخ ووقت الإصدار 11ساعات و 45 دقيقة قبل الساعة 14:00UTC
ريح 14 عقدة من الغرب
درجة الحرارة 38°درجة مئوية
الرطوبة 48%
ضغط 1003 hPa
الرؤية 10 كم أو أكثر
غيوم قليلة على ارتفاع 2300 قدم

METAR: HDAM 041400Z 27014KT 9999 FEW023 38/25 Q1003

زمن: 04:45 (01:45 UTC)

توقعات

تاريخ ووقت الإصدار 2ساعات و 45 دقيقة قبل الساعة 23:00UTC
التوقعات صالحة من05 الساعة 00 UTC إلى 05 الساعة 24 UTC
ريح 10 عقدة من الغرب/الشمال الغربي
الرؤية 10 كم أو أكثر
غيوم قليلة على ارتفاع 2000 قدم
غيوم قليلة على ارتفاع 3000 قدم, مزنة ركامية.
غيوم مفككة على ارتفاع 13300 قدم
أصبح
من 05 الساعة 06 UTC إلى 05 الساعة 12 UTC
ريح 10 عقدة من الغرب تتزايد حتى 15 عقدة
غيوم قليلة على ارتفاع 2300 قدم
غيوم متفرقة على ارتفاع 13300 قدم
أصبح
من 05 الساعة 15 UTC إلى 05 الساعة 21 UTC
ريح 5 عقدةمن اتجاهات متغيرة
غيوم قليلة على ارتفاع 13300 قدم

TAF: HDAM 042300Z 0500/0524 29010KT 9999 FEW020 FEW030CB BKN133 BECMG 0506/0512 27010G15KT FEW023 SCT133 BECMG 0515/0521 VRB05KT FEW133

أرصاد الطقس والتوقعات من أكثر من 4000 مطار (تقارير الطقس للمطار METAR والتنبؤ بالطقس بالمطارTAF).

المحطات المتاحة هي النقط الصفراء والحمراء على الخريطة.

حرك المؤشر فوق النقطة لمعرفة اسم المحطة.

ثم انقر لمعرفة أرصاد وتوقعات الطقس.

لتغيير الخارطة: اضغط على الأزرار الخضراء مع رمز الصليب الأسود للتكبير. على الزر الأخضر مع شرطة للتصغير، أو على الأسهم الخضراء للخرائط المجاورة.


METAR-TAF: